EGAEEGPF

Guest
Details From EGAE - Londonderry Eglinton
To EGPF - Glasgow
Flight Number -
Tags decoded
Created
Modified
Stats Distance 123 nm / 227 km
Max Altitude 0 ft / 0 m
Waypoints 4
Social Downloads 1
Likes 0
Share VATSIM

Download

Looking for another format? Having issues loading an existing format? Contact us
Advertisement - Login to hide

Notes

Requested: EGAE MAC N562 TRN EGPF Unmatched points: N562

Route

EGAE MAC TRN EGPF

ID Type Via Altitude Latitude Longitude Leg Dist Tot Dist Heading (true) Name
O EGAE APT - 0 ft / 0 m 55.04281˚ -7.16119˚ - 0 nm - Londonderry Eglinton
MAC VOR - 0 ft / 0 m 55.43000˚ -5.65028˚ 56 nm 56 nm 65° / 66° MACHRIHANISH VOR-DME
TRN VOR - 0 ft / 0 m 55.31333˚ -4.78389˚ 30 nm 87 nm 103° / 104° TURNBERRY VOR-DME
O EGPF APT - 0 ft / 0 m 55.87173˚ -4.43365˚ 35 nm 122 nm 19° / 20° Glasgow

Altitude Profile

Advertisement - Login to hide

EGAE

Details ICAO EGAE (LDY)
Name Londonderry Eglinton
Region United Kingdom
Timezone Europe/London (UTC+1.0)
Stats Elevation 22 ft / 7 m (AMSL)
Location 55.042812° -7.161188°
Runways 1
Magnetic Variation 3.633° W

METAR

EGAE 250520Z 05007KT 020V080 CAVOK 13/10 Q1026

Decode

TAF

Not found

Departure Runways

ID Width Length Bearing (true) Bearing (mag) Surface Threshold Offset Overrun Length
08 148 ft / 45 m 6,058 ft / 1,846 m 73.07° 76.70° Asphalt 407 ft / 124 m 0 ft / 0 m
26 148 ft / 45 m 6,058 ft / 1,846 m 253.09° 256.72° Asphalt 0 ft / 0 m 0 ft / 0 m

EGPF

Details ICAO EGPF (GLA)
Name Glasgow
Region United Kingdom
Timezone Europe/London (UTC+1.0)
Stats Elevation 26 ft / 8 m (AMSL)
Location 55.871728° -4.433648°
Runways 1
Magnetic Variation 2.656° W

METAR

EGPF 250520Z AUTO 04004KT 3400 BR BKN006 09/08 Q1026

Decode

TAF

TAF TAF EGPF 242304Z 2500/2524 07005KT CAVOK BECMG 2500/2503 6000 PROB30 2500/2507 4000 BR BKN004 BECMG 2507/2510 CAVOK TEMPO 2512/2518 07015G25KT

Decode

Destination Runways

ID Width Length Bearing (true) Bearing (mag) Surface Threshold Offset Overrun Length
05 151 ft / 46 m 8,721 ft / 2,658 m 46.34° 49.00° Asphalt 0 ft / 0 m 499 ft / 152 m
23 151 ft / 46 m 8,721 ft / 2,658 m 226.37° 229.03° Asphalt 1,004 ft / 306 m 0 ft / 0 m

Approach Navaids

Runway Type Ident Frequency Range Bearing (true) Bearing (mag) Slope Elevation
05 Localiser IUU 110.10 MHz 18 nm / 33 km 46.37° 49.02° - 26 ft / 8 m (AMSL)
05 Glidescope IUU 110.10 MHz 10 nm / 19 km 46.36° 49.01° 3.00° 52 ft / 16 m (AMSL)
05 DME IUU 110.10 MHz 18 nm / 33 km - - - 25 ft / 8 m (AMSL)
23 Localiser IOO 110.10 MHz 18 nm / 33 km 226.33° 228.99° - 26 ft / 8 m (AMSL)
23 Glidescope IOO 110.10 MHz 10 nm / 19 km 226.36° 229.01° 3.00° 50 ft / 15 m (AMSL)
23 DME IOO 110.10 MHz 18 nm / 33 km - - - 25 ft / 8 m (AMSL)

Popular Alternatives